Time;durP1;ratioP1;P1;durP2;ratioP2;P2;SDS_P1;SDS_P2;PMS_P1;PMS_P2;Temp;Humidity;BMP_temperature;BMP_pressure;BME280_temperature;BME280_humidity;BME280_pressure;Samples;Min_cycle;Max_cycle;Signal;HPM_P1;HPM_P2
2022/01/31 00:01:41;;;;;;;7.43;2.55;;;25.20;14.70;;;;;;5089483;28;20168;-64
2022/01/31 00:04:07;;;;;;;4.97;2.90;;;25.20;15.40;;;;;;5090456;28;20067;-63
2022/01/31 00:06:33;;;;;;;5.72;1.98;;;25.00;14.80;;;;;;5089519;28;20097;-63
2022/01/31 00:09:00;;;;;;;35.65;22.85;;;24.90;14.90;;;;;;5088605;28;20084;-62
2022/01/31 00:11:26;;;;;;;6.72;2.00;;;24.80;15.00;;;;;;5077241;28;20096;-62
2022/01/31 00:14:08;;;;;;;7.53;1.73;;;24.80;14.70;;;;;;5090115;28;20073;-62
2022/01/31 00:16:35;;;;;;;6.00;1.10;;;24.70;14.70;;;;;;5091944;28;20136;-64
2022/01/31 00:19:01;;;;;;;2.42;0.80;;;24.50;14.80;;;;;;5093297;28;20149;-61
2022/01/31 00:21:29;;;;;;;7.68;1.35;;;24.40;14.80;;;;;;5072042;28;20068;-61
2022/01/31 00:23:55;;;;;;;6.13;1.70;;;24.30;15.20;;;;;;5072608;28;20112;-62
2022/01/31 00:26:22;;;;;;;12.27;6.53;;;24.30;15.10;;;;;;5089164;28;20099;-64
2022/01/31 00:28:48;;;;;;;7.70;4.00;;;24.30;14.90;;;;;;5088555;28;20114;-65
2022/01/31 00:31:14;;;;;;;9.63;3.03;;;24.20;15.30;;;;;;5088656;28;20111;-62
2022/01/31 00:33:41;;;;;;;3.92;1.20;;;24.20;15.50;;;;;;5074360;28;20079;-64
2022/01/31 00:36:07;;;;;;;4.90;1.20;;;24.00;14.70;;;;;;5091826;28;21645;-64
2022/01/31 00:38:34;;;;;;;4.13;1.58;;;24.00;14.70;;;;;;5090281;28;20127;-64
2022/01/31 00:41:00;;;;;;;5.53;1.30;;;23.90;14.90;;;;;;5089411;28;20065;-62
2022/01/31 00:43:27;;;;;;;6.22;2.17;;;23.70;15.30;;;;;;5087495;28;20100;-65
2022/01/31 00:46:02;;;;;;;6.72;2.47;;;23.70;16.00;;;;;;5089095;28;20092;-63
2022/01/31 00:48:34;;;;;;;6.50;2.47;;;23.60;16.40;;;;;;5089106;28;20068;-64
2022/01/31 00:51:00;;;;;;;8.35;1.88;;;23.50;16.90;;;;;;5089602;28;20092;-63
2022/01/31 00:53:26;;;;;;;4.50;1.90;;;23.30;17.10;;;;;;5088875;28;20084;-63
2022/01/31 00:55:53;;;;;;;8.63;3.10;;;23.00;17.30;;;;;;5088018;28;20187;-64
2022/01/31 00:58:19;;;;;;;10.13;2.38;;;22.90;17.70;;;;;;5087676;28;20146;-62
2022/01/31 01:00:45;;;;;;;7.45;2.30;;;22.70;17.60;;;;;;5089060;28;20068;-63
2022/01/31 01:03:12;;;;;;;15.85;3.58;;;22.40;17.40;;;;;;5088461;28;20080;-63
2022/01/31 01:05:38;;;;;;;11.07;3.83;;;22.10;18.20;;;;;;5072955;28;20220;-63
2022/01/31 01:08:05;;;;;;;14.13;6.40;;;21.90;18.20;;;;;;5088417;28;20100;-64
2022/01/31 01:10:32;;;;;;;20.30;9.35;;;21.70;19.30;;;;;;5088261;28;20162;-63
2022/01/31 01:12:58;;;;;;;35.17;18.00;;;21.50;20.20;;;;;;5088301;28;20513;-62
2022/01/31 01:15:25;;;;;;;43.20;22.73;;;21.30;20.80;;;;;;5088036;28;20606;-63
2022/01/31 01:17:51;;;;;;;29.10;19.08;;;21.10;21.40;;;;;;5088890;28;20088;-61
2022/01/31 01:20:18;;;;;;;30.35;16.20;;;20.90;21.80;;;;;;5090487;28;20065;-62
2022/01/31 01:22:45;;;;;;;34.72;15.77;;;20.70;22.20;;;;;;5086731;28;20069;-61
2022/01/31 01:25:13;;;;;;;35.85;19.77;;;20.50;22.60;;;;;;5053635;28;20079;-64
2022/01/31 01:27:42;;;;;;;39.50;22.13;;;20.20;22.50;;;;;;5071758;28;20115;-61
2022/01/31 01:30:14;;;;;;;52.00;28.30;;;20.10;22.70;;;;;;5085630;28;20566;-61
2022/01/31 01:35:29;;;;;;;57.63;29.30;;;19.70;23.40;;;;;;5092169;28;20139;-63
2022/01/31 01:37:56;;;;;;;57.60;26.55;;;19.40;23.60;;;;;;5088717;28;20073;-69
2022/01/31 01:40:23;;;;;;;52.15;27.45;;;19.30;24.00;;;;;;5088350;28;20072;-69
2022/01/31 01:42:49;;;;;;;68.25;29.35;;;19.10;24.40;;;;;;5089422;28;20107;-67
2022/01/31 01:45:15;;;;;;;;;;;19.00;24.80;;;;;;5091021;28;20072;-70
2022/01/31 01:47:41;;;;;;;36.67;17.30;;;18.90;25.10;;;;;;5090960;28;20334;-68
2022/01/31 01:50:08;;;;;;;39.20;16.48;;;18.80;25.20;;;;;;5089101;28;20156;-68
2022/01/31 01:52:35;;;;;;;27.10;13.57;;;18.60;25.10;;;;;;5088197;28;20076;-68
2022/01/31 01:55:02;;;;;;;26.33;10.70;;;18.50;25.50;;;;;;5089677;28;20096;-68
2022/01/31 01:57:29;;;;;;;24.33;10.40;;;18.30;25.40;;;;;;5088992;28;20079;-67
2022/01/31 01:59:57;;;;;;;16.05;7.57;;;18.20;25.50;;;;;;5089352;28;20073;-67
2022/01/31 02:02:23;;;;;;;22.10;6.88;;;18.10;25.40;;;;;;5089708;28;20095;-70
2022/01/31 02:04:50;;;;;;;18.48;6.65;;;18.10;25.50;;;;;;5089944;28;20073;-67
2022/01/31 02:07:17;;;;;;;22.70;6.35;;;17.90;25.70;;;;;;5087662;28;20104;-68
2022/01/31 02:09:52;;;;;;;20.88;6.50;;;17.80;26.10;;;;;;5073065;28;20092;-67
2022/01/31 02:12:18;;;;;;;20.90;6.13;;;17.70;26.50;;;;;;5073364;28;20079;-66
2022/01/31 02:14:44;;;;;;;21.08;6.07;;;17.70;26.60;;;;;;5090114;28;20504;-66
2022/01/31 02:17:11;;;;;;;20.83;5.55;;;17.60;26.80;;;;;;5087906;28;20065;-68
2022/01/31 02:19:38;;;;;;;;;;;17.50;27.40;;;;;;5070567;28;20065;-70
2022/01/31 02:22:05;;;;;;;15.32;5.18;;;17.40;27.80;;;;;;5088055;28;20491;-66
2022/01/31 02:24:31;;;;;;;27.17;4.60;;;17.40;28.10;;;;;;5071600;28;20113;-67
2022/01/31 02:27:03;;;;;;;21.77;5.13;;;17.30;29.20;;;;;;5071795;28;20093;-67
2022/01/31 02:29:30;;;;;;;15.90;5.05;;;17.20;28.60;;;;;;5087679;28;20065;-70
2022/01/31 02:31:56;;;;;;;;;;;17.20;28.20;;;;;;5089206;28;20230;-66
2022/01/31 02:34:22;;;;;;;18.85;6.30;;;17.10;28.00;;;;;;5089349;28;19957;-69
2022/01/31 02:36:48;;;;;;;;;;;17.00;28.40;;;;;;5089390;28;20149;-66
2022/01/31 02:39:15;;;;;;;46.15;7.90;;;16.90;28.50;;;;;;5070606;28;20002;-68
2022/01/31 02:41:43;;;;;;;41.70;8.30;;;16.80;28.40;;;;;;5088704;28;20570;-66
2022/01/31 02:44:15;;;;;;;35.53;10.60;;;16.70;28.60;;;;;;5070460;28;20480;-65
2022/01/31 02:46:54;;;;;;;51.80;15.95;;;16.70;29.20;;;;;;5087852;28;20061;-67
2022/01/31 02:49:29;;;;;;;63.85;18.67;;;16.60;29.10;;;;;;5087407;28;20068;-68
2022/01/31 02:52:00;;;;;;;52.20;19.17;;;16.50;28.90;;;;;;5086691;28;20482;-65
2022/01/31 02:54:29;;;;;;;60.38;21.30;;;16.40;29.40;;;;;;5087155;28;20163;-67
2022/01/31 02:56:55;;;;;;;65.55;24.95;;;16.40;29.50;;;;;;5087818;28;20104;-66
2022/01/31 02:59:21;;;;;;;;;;;16.30;29.70;;;;;;5089212;28;20081;-67
2022/01/31 03:01:48;;;;;;;85.80;32.85;;;16.20;29.80;;;;;;5089404;28;19964;-66
2022/01/31 03:04:14;;;;;;;;;;;16.10;29.70;;;;;;5090182;28;20079;-65
2022/01/31 03:06:49;;;;;;;100.80;37.92;;;16.00;29.70;;;;;;5089176;28;19964;-67
2022/01/31 03:09:16;;;;;;;88.85;34.88;;;15.90;30.00;;;;;;5088345;28;20076;-66
2022/01/31 03:11:42;;;;;;;92.57;35.00;;;15.90;30.20;;;;;;5088219;28;20093;-68
2022/01/31 03:14:09;;;;;;;;;;;15.90;30.60;;;;;;5090821;28;20072;-69
2022/01/31 03:16:43;;;;;;;79.45;33.78;;;15.80;30.80;;;;;;5088994;28;20314;-67
2022/01/31 03:19:10;;;;;;;89.57;34.83;;;15.70;30.90;;;;;;5088718;28;20688;-67
2022/01/31 03:21:36;;;;;;;;;;;15.80;31.30;;;;;;5091390;28;21156;-68
2022/01/31 03:24:04;;;;;;;99.88;34.90;;;15.70;31.70;;;;;;5091908;28;20040;-67
2022/01/31 03:26:30;;;;;;;74.38;32.45;;;15.60;31.70;;;;;;5092117;28;20103;-69
2022/01/31 03:28:57;;;;;;;86.38;34.00;;;15.60;31.90;;;;;;5091678;28;20064;-68
2022/01/31 03:31:24;;;;;;;98.80;34.90;;;15.50;32.50;;;;;;5093242;28;20152;-66
2022/01/31 03:33:53;;;;;;;92.55;36.38;;;15.50;33.20;;;;;;5090289;28;20076;-68
2022/01/31 03:36:20;;;;;;;98.55;35.03;;;15.50;33.50;;;;;;5090369;28;20484;-68
2022/01/31 03:38:47;;;;;;;92.65;35.70;;;15.50;33.70;;;;;;5074460;28;20091;-70
2022/01/31 03:41:16;;;;;;;93.03;34.83;;;15.30;33.50;;;;;;5090741;28;20152;-67
2022/01/31 03:43:43;;;;;;;109.97;36.40;;;15.30;33.80;;;;;;5090337;28;20206;-67
2022/01/31 03:46:10;;;;;;;103.38;36.15;;;15.20;33.70;;;;;;5091928;28;20099;-67
2022/01/31 03:48:36;;;;;;;80.95;31.45;;;15.10;33.90;;;;;;5091093;28;20125;-68
2022/01/31 03:51:04;;;;;;;90.47;34.50;;;15.10;34.10;;;;;;5074283;28;20073;-66
2022/01/31 03:53:31;;;;;;;88.32;31.15;;;15.00;33.70;;;;;;5091919;28;20084;-68
2022/01/31 03:55:58;;;;;;;84.65;30.42;;;14.90;33.90;;;;;;5090499;28;20488;-69
2022/01/31 03:58:25;;;;;;;85.72;26.83;;;14.90;34.00;;;;;;5089699;28;20438;-67
2022/01/31 04:00:52;;;;;;;60.72;24.38;;;14.90;34.30;;;;;;5090117;28;20483;-69
2022/01/31 04:03:19;;;;;;;63.72;24.13;;;14.90;33.00;;;;;;5090526;28;20122;-65
2022/01/31 04:05:45;;;;;;;58.67;22.58;;;14.90;33.10;;;;;;5090793;28;20618;-69
2022/01/31 04:08:12;;;;;;;;;;;14.80;32.50;;;;;;5091662;28;20083;-68
2022/01/31 04:10:40;;;;;;;59.75;19.88;;;14.70;31.80;;;;;;5091526;28;20445;-68
2022/01/31 04:13:06;;;;;;;63.80;20.70;;;14.70;31.50;;;;;;5090154;28;20080;-67
2022/01/31 04:15:33;;;;;;;;;;;14.60;32.40;;;;;;5089779;28;20066;-67
2022/01/31 04:18:00;;;;;;;59.17;20.88;;;14.50;32.00;;;;;;5090882;28;19968;-67
2022/01/31 04:20:26;;;;;;;70.57;21.42;;;14.40;32.30;;;;;;5074280;28;20167;-65
2022/01/31 04:25:29;;;;;;;67.30;21.63;;;14.40;32.50;;;;;;5092134;28;19980;-69
2022/01/31 04:28:06;;;;;;;64.50;22.00;;;14.30;33.30;;;;;;5074875;28;20084;-69
2022/01/31 04:30:37;;;;;;;83.43;22.80;;;14.30;34.30;;;;;;5088724;28;20142;-70
2022/01/31 04:33:04;;;;;;;61.40;21.85;;;14.30;34.20;;;;;;5090255;28;20155;-70
2022/01/31 04:35:30;;;;;;;67.75;21.13;;;14.20;33.50;;;;;;5090527;28;20554;-70
2022/01/31 04:38:04;;;;;;;82.22;28.83;;;14.20;33.50;;;;;;5089397;28;20072;-70
2022/01/31 04:40:30;;;;;;;90.43;29.30;;;14.10;33.60;;;;;;5089042;28;20089;-69
2022/01/31 04:42:56;;;;;;;;;;;14.10;33.70;;;;;;5090337;28;20801;-69
2022/01/31 04:45:24;;;;;;;105.65;36.47;;;14.00;34.10;;;;;;5090996;28;20015;-68
2022/01/31 04:47:51;;;;;;;99.80;36.80;;;13.90;34.40;;;;;;5073788;28;20069;-68
2022/01/31 04:50:17;;;;;;;;;;;13.90;35.10;;;;;;5091106;28;20568;-68
2022/01/31 04:52:43;;;;;;;90.15;35.30;;;13.90;35.00;;;;;;5090273;28;20418;-68
2022/01/31 04:55:11;;;;;;;117.03;36.17;;;13.90;35.40;;;;;;5089201;28;20081;-70
2022/01/31 04:57:38;;;;;;;124.50;35.88;;;13.80;35.20;;;;;;5089782;28;20523;-67
2022/01/31 05:00:07;;;;;;;86.95;34.58;;;13.80;35.60;;;;;;5076434;28;20076;-70
2022/01/31 05:02:36;;;;;;;119.60;34.45;;;13.80;36.10;;;;;;5091557;28;20088;-73
2022/01/31 05:05:04;;;;;;;105.38;33.90;;;13.80;36.80;;;;;;5091410;28;20138;-68
2022/01/31 05:07:30;;;;;;;99.10;34.60;;;13.80;36.60;;;;;;5090529;28;20111;-68
2022/01/31 05:09:56;;;;;;;96.05;34.47;;;13.70;36.40;;;;;;5088224;28;20442;-69
2022/01/31 05:12:25;;;;;;;108.63;35.47;;;13.60;36.40;;;;;;5089853;28;20159;-70
2022/01/31 05:14:51;;;;;;;116.97;36.38;;;13.70;36.60;;;;;;5088346;28;20523;-68
2022/01/31 05:17:17;;;;;;;105.65;34.17;;;13.60;37.00;;;;;;5088163;28;20519;-68
2022/01/31 05:19:43;;;;;;;;;;;13.50;37.00;;;;;;5088100;28;20083;-67
2022/01/31 05:22:10;;;;;;;132.75;39.95;;;13.60;37.00;;;;;;5089834;28;19956;-68
2022/01/31 05:24:36;;;;;;;120.45;39.08;;;13.50;37.40;;;;;;5090065;28;20104;-70
2022/01/31 05:27:03;;;;;;;114.90;39.42;;;13.50;37.40;;;;;;5089295;28;20065;-67
2022/01/31 05:29:29;;;;;;;126.68;42.50;;;13.50;37.80;;;;;;5089958;28;20089;-69
2022/01/31 05:31:55;;;;;;;;;;;13.50;37.60;;;;;;5089185;28;20489;-69
2022/01/31 05:34:24;;;;;;;130.98;42.83;;;13.40;37.60;;;;;;5090233;28;20022;-70
2022/01/31 05:36:55;;;;;;;136.00;43.42;;;13.30;37.80;;;;;;5090033;28;20087;-69
2022/01/31 05:39:26;;;;;;;148.07;48.90;;;13.30;38.20;;;;;;5088924;28;20081;-69
2022/01/31 05:41:53;;;;;;;159.82;51.80;;;13.30;39.40;;;;;;5087575;28;20085;-67
2022/01/31 05:44:21;;;;;;;163.43;54.35;;;13.30;39.10;;;;;;5088212;28;20117;-68
2022/01/31 05:46:47;;;;;;;156.43;53.67;;;13.20;38.90;;;;;;5089071;28;20099;-68
2022/01/31 05:49:13;;;;;;;;;;;13.20;39.00;;;;;;5087195;28;20071;-68
2022/01/31 05:51:50;;;;;;;208.05;64.35;;;13.20;38.60;;;;;;5087639;28;19956;-66
2022/01/31 05:54:17;;;;;;;193.85;66.22;;;13.20;39.40;;;;;;5087462;28;20065;-64
2022/01/31 05:56:43;;;;;;;;;;;13.50;39.60;;;;;;5082960;28;20141;-65
2022/01/31 05:59:10;;;;;;;209.13;74.40;;;13.70;38.60;;;;;;5086805;28;19960;-63
2022/01/31 06:01:39;;;;;;;200.18;70.97;;;13.80;38.40;;;;;;5086167;28;20073;-65
2022/01/31 06:04:06;;;;;;;196.13;73.10;;;13.80;38.60;;;;;;5087649;28;20096;-68
2022/01/31 06:06:35;;;;;;;219.38;72.93;;;13.90;38.10;;;;;;5087323;28;20126;-65
2022/01/31 06:09:03;;;;;;;202.00;72.28;;;13.80;38.50;;;;;;5088393;28;20102;-65
2022/01/31 06:11:31;;;;;;;185.90;74.60;;;13.80;38.70;;;;;;5085544;28;20089;-67
2022/01/31 06:14:00;;;;;;;229.43;81.65;;;13.90;38.00;;;;;;5084885;28;20077;-65
2022/01/31 06:16:30;;;;;;;219.88;79.25;;;13.90;37.80;;;;;;5085905;28;20075;-64
2022/01/31 06:18:57;;;;;;;204.70;77.22;;;13.90;37.80;;;;;;5085660;28;20164;-67
2022/01/31 06:21:23;;;;;;;222.40;79.90;;;14.00;38.10;;;;;;5088555;28;20411;-64
2022/01/31 06:23:49;;;;;;;;;;;13.90;37.80;;;;;;5088988;28;20477;-63
2022/01/31 06:26:15;;;;;;;229.25;83.03;;;13.90;37.80;;;;;;5086629;28;20024;-64
2022/01/31 06:28:42;;;;;;;;;;;13.90;37.90;;;;;;5090096;28;20068;-65
2022/01/31 06:31:08;;;;;;;218.63;79.22;;;13.80;38.90;;;;;;5087593;28;20318;-64
2022/01/31 06:33:34;;;;;;;;;;;13.80;38.40;;;;;;5086870;28;20472;-67
2022/01/31 06:36:01;;;;;;;253.75;89.20;;;13.70;39.20;;;;;;5087660;28;20023;-65
2022/01/31 06:38:28;;;;;;;256.90;89.43;;;13.60;39.40;;;;;;5086419;28;20180;-64
2022/01/31 06:40:55;;;;;;;227.35;85.63;;;13.80;39.30;;;;;;5087124;28;20123;-64
2022/01/31 06:43:21;;;;;;;255.68;92.03;;;13.70;39.90;;;;;;5088325;28;20088;-64
2022/01/31 06:45:48;;;;;;;259.52;95.43;;;13.60;40.00;;;;;;5087752;28;20085;-62
2022/01/31 06:48:14;;;;;;;;;;;13.50;40.00;;;;;;5087982;28;20071;-67
2022/01/31 06:50:40;;;;;;;280.42;98.07;;;13.40;39.60;;;;;;5088152;28;19957;-65
2022/01/31 06:53:06;;;;;;;;;;;13.40;39.40;;;;;;5089746;28;20156;-64
2022/01/31 06:55:34;;;;;;;285.52;98.18;;;13.30;39.90;;;;;;5090493;28;19957;-64
2022/01/31 06:58:04;;;;;;;254.25;95.03;;;13.30;40.40;;;;;;5092185;28;20103;-64
2022/01/31 07:00:31;;;;;;;255.50;89.82;;;13.30;40.30;;;;;;5087528;28;20738;-64
2022/01/31 07:03:00;;;;;;;244.70;95.13;;;13.40;40.30;;;;;;5072904;28;20087;-65
2022/01/31 07:05:27;;;;;;;263.52;92.72;;;13.30;40.50;;;;;;5090380;28;20096;-66
2022/01/31 07:07:53;;;;;;;258.42;92.10;;;13.30;40.80;;;;;;5095161;28;20068;-66
2022/01/31 07:10:19;;;;;;;;;;;13.20;41.10;;;;;;5091241;28;20093;-66
2022/01/31 07:12:52;;;;;;;270.13;91.63;;;13.20;41.10;;;;;;5091581;28;20034;-63
2022/01/31 07:15:19;;;;;;;251.95;88.38;;;13.10;41.30;;;;;;5089943;28;20122;-64
2022/01/31 07:17:46;;;;;;;266.35;90.97;;;13.10;41.70;;;;;;5090356;28;20080;-63
2022/01/31 07:20:35;;;;;;;256.67;89.13;;;13.00;42.00;;;;;;5091603;28;20096;-65
2022/01/31 07:23:08;;;;;;;257.70;87.22;;;13.00;41.60;;;;;;5090098;28;20088;-67
2022/01/31 07:25:35;;;;;;;236.88;84.78;;;12.90;42.00;;;;;;5089374;28;20084;-66
2022/01/31 07:28:08;;;;;;;257.98;87.93;;;12.90;42.00;;;;;;5089019;28;20098;-68
2022/01/31 07:30:37;;;;;;;270.55;87.30;;;12.80;42.40;;;;;;5090382;28;20087;-65
2022/01/31 07:33:04;;;;;;;254.13;88.40;;;12.80;42.40;;;;;;5090632;28;20163;-65
2022/01/31 07:35:30;;;;;;;268.70;91.35;;;12.80;42.20;;;;;;5074415;28;20088;-65
2022/01/31 07:37:57;;;;;;;248.95;93.03;;;12.70;42.60;;;;;;5089567;28;20099;-65
2022/01/31 07:40:23;;;;;;;;;;;12.70;42.20;;;;;;5088432;28;20126;-66
2022/01/31 07:42:49;;;;;;;258.60;98.55;;;12.70;42.90;;;;;;5087193;28;19991;-63
2022/01/31 07:45:15;;;;;;;;;;;12.70;43.00;;;;;;5090068;28;20095;-66
2022/01/31 07:47:43;;;;;;;254.65;93.50;;;12.70;42.50;;;;;;5089272;28;20330;-64
2022/01/31 07:50:11;;;;;;;256.25;91.05;;;12.60;42.70;;;;;;5088479;28;20171;-68
2022/01/31 07:52:38;;;;;;;273.38;94.70;;;12.60;42.20;;;;;;5087715;28;20068;-66
2022/01/31 07:55:05;;;;;;;270.83;94.15;;;12.50;42.00;;;;;;5087617;28;20441;-67
2022/01/31 07:57:32;;;;;;;249.32;91.13;;;12.50;41.80;;;;;;5089662;28;20076;-67
2022/01/31 07:59:59;;;;;;;256.58;88.95;;;12.40;42.50;;;;;;5088463;28;20073;-67
2022/01/31 08:02:26;;;;;;;254.02;91.80;;;12.40;42.30;;;;;;5090470;28;20449;-66
2022/01/31 08:04:54;;;;;;;266.55;89.35;;;12.30;43.00;;;;;;5090279;28;20099;-66
2022/01/31 08:07:24;;;;;;;264.60;97.03;;;12.30;42.70;;;;;;5090185;28;20088;-67
2022/01/31 08:09:50;;;;;;;282.77;93.93;;;12.30;42.50;;;;;;5086334;28;20096;-65
2022/01/31 08:12:17;;;;;;;275.63;93.07;;;12.30;43.10;;;;;;5089725;28;20080;-63
2022/01/31 08:14:45;;;;;;;273.13;94.30;;;12.30;42.90;;;;;;5087697;28;20097;-62
2022/01/31 08:17:11;;;;;;;256.88;92.15;;;12.30;43.00;;;;;;5087895;28;20166;-63
2022/01/31 08:19:37;;;;;;;;;;;12.30;43.80;;;;;;5071120;28;20072;-60
2022/01/31 08:22:04;;;;;;;254.50;92.28;;;12.20;44.00;;;;;;5089050;28;20601;-58
2022/01/31 08:24:30;;;;;;;;;;;12.20;43.90;;;;;;5070721;28;20524;-60
2022/01/31 08:26:56;;;;;;;264.45;94.32;;;12.10;43.70;;;;;;5071524;28;20012;-60
2022/01/31 08:29:29;;;;;;;274.98;93.75;;;12.10;43.10;;;;;;5089218;28;20075;-60
2022/01/31 08:31:57;;;;;;;270.92;92.28;;;12.10;43.30;;;;;;5091652;28;20064;-66
2022/01/31 08:35:47;;;;;;;274.23;91.72;;;12.10;43.50;;;;;;5087739;28;20114;-64
2022/01/31 08:37:13;;;;;;;248.55;91.05;;;12.00;43.10;;;;;;5089132;28;20073;-64
2022/01/31 08:39:39;;;;;;;249.45;90.53;;;12.10;44.20;;;;;;5088457;28;20167;-64
2022/01/31 08:42:06;;;;;;;262.08;90.78;;;12.00;43.40;;;;;;5088034;28;20492;-63
2022/01/31 08:44:33;;;;;;;254.30;89.50;;;11.90;43.40;;;;;;5088995;28;20494;-61
2022/01/31 08:46:59;;;;;;;;;;;11.90;43.40;;;;;;5089256;28;20085;-63
2022/01/31 08:49:25;;;;;;;267.20;88.47;;;11.80;43.60;;;;;;5088618;28;20623;-61
2022/01/31 08:51:52;;;;;;;254.73;89.80;;;11.80;43.70;;;;;;5091186;28;20076;-63
2022/01/31 08:54:19;;;;;;;;;;;11.80;44.00;;;;;;5089096;28;20546;-64
2022/01/31 08:56:45;;;;;;;262.05;87.28;;;11.80;45.20;;;;;;5087357;28;19972;-63
2022/01/31 08:59:18;;;;;;;;;;;11.80;45.50;;;;;;5087335;28;20465;-63
2022/01/31 09:01:52;;;;;;;254.68;87.63;;;11.80;45.50;;;;;;5086781;28;19963;-64
2022/01/31 09:04:32;;;;;;;257.25;89.80;;;11.80;45.50;;;;;;5074625;28;20077;-62
2022/01/31 09:06:59;;;;;;;258.02;87.25;;;11.70;45.40;;;;;;5089221;28;20488;-64
2022/01/31 09:09:26;;;;;;;253.00;84.43;;;11.60;45.10;;;;;;5087631;28;20161;-63
2022/01/31 09:11:52;;;;;;;;;;;11.60;44.90;;;;;;5088785;28;20230;-63
2022/01/31 09:14:18;;;;;;;229.40;83.32;;;11.60;44.70;;;;;;5088468;28;19956;-62
2022/01/31 09:16:45;;;;;;;;;;;11.50;44.90;;;;;;5071740;28;20542;-65
2022/01/31 09:19:11;;;;;;;237.13;81.00;;;11.40;45.40;;;;;;5086803;28;19979;-64
2022/01/31 09:21:37;;;;;;;;;;;11.40;45.50;;;;;;5089751;28;20082;-62
2022/01/31 09:24:04;;;;;;;228.27;80.20;;;11.40;45.60;;;;;;5086580;28;19996;-63
2022/01/31 09:26:31;;;;;;;240.65;81.45;;;11.30;46.30;;;;;;5086039;28;20187;-63
2022/01/31 09:28:58;;;;;;;221.43;78.45;;;11.20;46.20;;;;;;5089323;28;20482;-64
2022/01/31 09:31:25;;;;;;;248.38;81.90;;;11.20;45.60;;;;;;5086177;28;20104;-64
2022/01/31 09:33:51;;;;;;;273.80;89.30;;;11.20;45.10;;;;;;5084783;28;20075;-64
2022/01/31 09:36:18;;;;;;;274.50;85.10;;;11.10;44.70;;;;;;5089084;28;20076;-62
2022/01/31 09:38:45;;;;;;;230.15;78.85;;;11.10;45.30;;;;;;5088694;28;20126;-63
2022/01/31 09:41:16;;;;;;;240.07;81.18;;;11.20;44.60;;;;;;5086535;28;20077;-63
2022/01/31 09:46:34;;;;;;;259.88;77.88;;;11.20;43.80;;;;;;5087498;28;20081;-63
2022/01/31 09:49:01;;;;;;;241.05;74.65;;;11.20;44.10;;;;;;5085037;28;20122;-64
2022/01/31 09:51:28;;;;;;;229.02;72.13;;;11.10;44.10;;;;;;5086253;28;20072;-61
2022/01/31 09:53:58;;;;;;;;;;;11.20;44.00;;;;;;5086547;28;20075;-63
2022/01/31 09:56:32;;;;;;;238.07;69.85;;;11.20;43.70;;;;;;5086677;28;19973;-62
2022/01/31 09:59:01;;;;;;;214.93;65.88;;;11.10;43.80;;;;;;5085698;28;20526;-64
2022/01/31 10:01:28;;;;;;;219.70;64.20;;;11.10;43.80;;;;;;5086740;28;20088;-63
2022/01/31 10:04:13;;;;;;;215.13;67.70;;;11.10;43.60;;;;;;5086656;28;20076;-63
2022/01/31 10:06:42;;;;;;;231.95;70.05;;;11.10;44.10;;;;;;5085835;28;20093;-64
2022/01/31 10:09:18;;;;;;;223.48;68.53;;;11.10;44.50;;;;;;5088632;28;20144;-64
2022/01/31 10:11:56;;;;;;;209.10;64.60;;;11.10;44.70;;;;;;5087370;28;20084;-65
2022/01/31 10:17:34;;;;;;;201.02;64.68;;;11.00;44.80;;;;;;5087755;28;20084;-64
2022/01/31 10:20:05;;;;;;;206.18;65.78;;;10.80;44.50;;;;;;5086375;28;20495;-64
2022/01/31 10:22:34;;;;;;;211.45;65.68;;;10.80;44.20;;;;;;5052938;28;20088;-63
2022/01/31 10:25:06;;;;;;;191.25;65.55;;;10.80;44.70;;;;;;5084860;28;20546;-64
2022/01/31 10:27:34;;;;;;;207.27;65.68;;;10.80;44.40;;;;;;5085392;28;20531;-65
2022/01/31 10:30:16;;;;;;;214.43;64.80;;;10.80;44.60;;;;;;5087460;28;20455;-63
2022/01/31 10:32:46;;;;;;;212.50;65.70;;;10.80;45.00;;;;;;5086601;28;20137;-63
2022/01/31 10:35:20;;;;;;;204.30;63.78;;;10.80;46.10;;;;;;5071422;28;20068;-63
2022/01/31 10:37:48;;;;;;;227.07;64.95;;;10.80;45.30;;;;;;5086266;28;20091;-63
2022/01/31 10:51:53;;;;;;;212.00;68.93;;;10.60;46.00;;;;;;5085663;28;20061;-63
2022/01/31 10:56:51;;;;;;;205.15;64.15;;;10.50;47.10;;;;;;5084528;28;20427;-64
2022/01/31 10:59:19;;;;;;;197.98;66.25;;;10.50;47.00;;;;;;5070540;28;20076;-64
2022/01/31 11:01:51;;;;;;;220.98;67.55;;;10.50;46.60;;;;;;5070590;28;20080;-64
2022/01/31 11:04:18;;;;;;;219.75;67.57;;;10.50;46.50;;;;;;5082949;28;20077;-66
2022/01/31 11:06:49;;;;;;;208.15;67.03;;;10.40;46.90;;;;;;5086878;28;20084;-64
2022/01/31 11:09:18;;;;;;;206.23;66.72;;;10.40;47.10;;;;;;5083670;28;20571;-64
2022/01/31 11:11:47;;;;;;;233.95;71.10;;;10.40;46.80;;;;;;5086447;28;20092;-64
2022/01/31 11:14:15;;;;;;;210.32;71.72;;;10.30;47.00;;;;;;5086206;28;20103;-62
2022/01/31 11:16:44;;;;;;;225.65;74.13;;;10.30;47.20;;;;;;5085530;28;20160;-62
2022/01/31 11:19:15;;;;;;;244.32;71.63;;;10.30;46.90;;;;;;5071757;28;20076;-66
2022/01/31 11:21:45;;;;;;;229.85;74.78;;;10.30;46.90;;;;;;5085949;28;20108;-63
2022/01/31 11:24:43;;;;;;;241.60;79.18;;;10.20;46.80;;;;;;5069306;28;20572;-62
2022/01/31 11:27:16;;;;;;;245.15;79.75;;;10.20;46.90;;;;;;5083717;28;20505;-63
2022/01/31 11:29:49;;;;;;;248.35;83.82;;;10.20;47.60;;;;;;5069006;28;20073;-64
2022/01/31 11:32:16;;;;;;;231.88;83.03;;;10.10;46.60;;;;;;5087408;28;20092;-63
2022/01/31 11:34:45;;;;;;;243.10;87.55;;;10.00;46.40;;;;;;5086167;28;20072;-67
2022/01/31 11:37:14;;;;;;;259.40;86.47;;;10.10;46.80;;;;;;5087461;28;20437;-65
2022/01/31 11:39:44;;;;;;;254.82;87.47;;;10.00;46.50;;;;;;5072406;28;20096;-63
2022/01/31 11:42:12;;;;;;;274.70;92.32;;;10.00;46.60;;;;;;5088193;28;20080;-63
2022/01/31 11:44:49;;;;;;;282.65;92.82;;;10.00;47.80;;;;;;5089312;28;20160;-63
2022/01/31 11:47:24;;;;;;;284.33;91.15;;;9.90;47.30;;;;;;5088229;28;20092;-64
2022/01/31 11:49:55;;;;;;;286.13;95.72;;;9.90;47.90;;;;;;5088657;28;20636;-65
2022/01/31 11:52:22;;;;;;;269.75;95.65;;;9.90;48.30;;;;;;5070917;28;20438;-65
2022/01/31 11:54:50;;;;;;;262.73;93.82;;;9.90;48.40;;;;;;5089837;28;20155;-63
2022/01/31 11:57:23;;;;;;;274.48;90.35;;;9.80;48.50;;;;;;5089750;28;20154;-64
2022/01/31 11:59:58;;;;;;;246.48;88.30;;;9.80;48.10;;;;;;5091166;28;20081;-63
2022/01/31 12:02:29;;;;;;;251.32;88.03;;;9.90;47.60;;;;;;5072908;28;20084;-64
2022/01/31 12:05:01;;;;;;;265.52;87.45;;;9.80;47.30;;;;;;5088024;28;20077;-65
2022/01/31 12:07:44;;;;;;;229.77;83.80;;;9.80;47.60;;;;;;5073044;28;20108;-65
2022/01/31 12:10:19;;;;;;;238.05;84.65;;;9.80;48.30;;;;;;5073217;28;20092;-63
2022/01/31 12:12:51;;;;;;;243.50;84.10;;;9.80;48.90;;;;;;5087092;28;20076;-63
2022/01/31 12:18:34;;;;;;;243.40;81.00;;;9.60;48.90;;;;;;5088585;28;20147;-63
2022/01/31 12:23:55;;;;;;;228.98;80.78;;;9.60;48.40;;;;;;5088815;28;20165;-61
2022/01/31 12:26:36;;;;;;;248.73;83.43;;;9.50;48.10;;;;;;5088153;28;20088;-63
2022/01/31 12:29:15;;;;;;;225.00;80.80;;;9.60;48.60;;;;;;5088775;28;20072;-61
2022/01/31 12:31:47;;;;;;;229.82;80.63;;;9.60;48.70;;;;;;5105160;27;20076;-61
2022/01/31 12:34:22;;;;;;;236.60;78.22;;;9.60;48.50;;;;;;5088832;28;20534;-62
2022/01/31 12:36:53;;;;;;;231.93;80.30;;;9.60;48.70;;;;;;5088588;28;20433;-62
2022/01/31 12:39:35;;;;;;;240.40;79.65;;;9.50;48.80;;;;;;5088706;28;20080;-63
2022/01/31 12:43:25;;;;;;;244.07;82.53;;;9.50;48.70;;;;;;5087594;28;20111;-62
2022/01/31 12:45:32;;;;;;;223.45;74.55;;;9.50;48.80;;;;;;5072870;28;20085;-63
2022/01/31 12:48:22;;;;;;;238.88;79.95;;;9.40;48.60;;;;;;5073011;28;20104;-64
2022/01/31 12:50:51;;;;;;;248.75;78.60;;;9.40;49.10;;;;;;5086224;28;20073;-63
2022/01/31 12:53:29;;;;;;;233.15;79.35;;;9.40;49.40;;;;;;5087893;28;20752;-64
2022/01/31 12:56:07;;;;;;;231.48;77.53;;;9.40;49.40;;;;;;5089667;28;20080;-63
2022/01/31 12:58:38;;;;;;;234.05;76.40;;;9.40;49.40;;;;;;5086207;28;20114;-62
2022/01/31 13:01:16;;;;;;;216.48;73.30;;;9.40;50.00;;;;;;5071960;28;20081;-63
2022/01/31 13:03:48;;;;;;;229.10;77.80;;;9.30;49.30;;;;;;5087889;28;20068;-63
2022/01/31 13:06:25;;;;;;;235.85;75.68;;;9.30;50.00;;;;;;5072132;28;20469;-64
2022/01/31 13:08:51;;;;;;;226.20;77.80;;;9.20;49.90;;;;;;5089044;28;20076;-63
2022/01/31 13:11:18;;;;;;;231.93;74.93;;;9.20;50.10;;;;;;5087481;28;20089;-65
2022/01/31 13:13:46;;;;;;;;;;;9.20;50.40;;;;;;5072042;28;20072;-63
2022/01/31 13:16:14;;;;;;;227.60;75.25;;;9.10;50.20;;;;;;5086470;28;19957;-62